Time;durP1;ratioP1;P1;durP2;ratioP2;P2;SDS_P1;SDS_P2;PMS_P1;PMS_P2;Temp;Humidity;BMP_temperature;BMP_pressure;BME280_temperature;BME280_humidity;BME280_pressure;Samples;Min_cycle;Max_cycle;Signal;HPM_P1;HPM_P2
2022/04/01 00:02:25;;;;;;;4.03;1.48;;;;;;;19.49;42.13;100165.72;5052232;28;20021;-57
2022/04/01 00:04:50;;;;;;;4.55;1.25;;;;;;;19.45;42.65;100169.63;5052611;28;20102;-57
2022/04/01 00:07:16;;;;;;;4.85;1.50;;;;;;;19.44;42.42;100165.31;5052695;28;20055;-57
2022/04/01 00:09:41;;;;;;;3.70;1.23;;;;;;;19.42;42.46;100168.13;5051963;28;20032;-57
2022/04/01 00:12:10;;;;;;;5.23;1.30;;;;;;;19.41;42.77;100174.41;5052045;28;20567;-57
2022/04/01 00:14:39;;;;;;;5.32;1.17;;;;;;;19.40;42.42;100178.00;5052787;28;20270;-57
2022/04/01 00:17:07;;;;;;;3.47;1.35;;;;;;;19.39;42.23;100174.56;5051509;28;20365;-57
2022/04/01 00:19:33;;;;;;;3.00;1.25;;;;;;;19.37;42.21;100180.94;5052641;28;20108;-57
2022/04/01 00:21:58;;;;;;;3.88;1.30;;;;;;;19.36;42.40;100182.78;5051469;28;20060;-57
2022/04/01 00:24:24;;;;;;;3.97;1.45;;;;;;;19.35;42.63;100186.38;5052723;28;20087;-57
2022/04/01 00:26:49;;;;;;;4.05;1.30;;;;;;;19.30;42.41;100180.72;5052447;28;20025;-57
2022/04/01 00:29:15;;;;;;;2.95;1.25;;;;;;;19.30;42.48;100193.94;5051940;28;20032;-57
2022/04/01 00:31:45;;;;;;;3.88;1.30;;;;;;;19.28;42.67;100180.03;5052608;28;20082;-57
2022/04/01 00:34:17;;;;;;;3.95;1.60;;;;;;;19.28;42.72;100190.59;5052252;28;20234;-56
2022/04/01 00:36:44;;;;;;;3.22;1.27;;;;;;;19.28;42.25;100189.75;5051791;28;20025;-57
2022/04/01 00:39:10;;;;;;;4.07;1.42;;;;;;;19.26;42.24;100191.72;5052310;28;20025;-57
2022/04/01 00:41:35;;;;;;;3.70;1.00;;;;;;;19.24;42.21;100198.97;5052397;28;20533;-57
2022/04/01 00:44:13;;;;;;;4.40;1.60;;;;;;;19.22;42.88;100204.41;5051439;28;20036;-57
2022/04/01 00:46:40;;;;;;;3.42;1.30;;;;;;;19.22;42.69;100204.41;5052630;28;20033;-58
2022/04/01 00:49:05;;;;;;;2.22;1.10;;;;;;;19.20;42.61;100207.19;5052092;28;20033;-57
2022/04/01 00:51:31;;;;;;;2.85;1.20;;;;;;;19.19;42.85;100204.69;5051757;28;20032;-58
2022/04/01 00:53:58;;;;;;;3.90;1.25;;;;;;;19.16;42.57;100200.53;5052275;28;20100;-58
2022/04/01 00:56:30;;;;;;;3.53;1.13;;;;;;;19.16;42.47;100212.91;5052476;28;20029;-58
2022/04/01 00:58:56;;;;;;;4.15;1.30;;;;;;;19.14;42.55;100205.13;5051380;28;20048;-58
2022/04/01 01:01:21;;;;;;;3.45;1.10;;;;;;;19.11;42.34;100218.63;5052277;28;20036;-58
2022/04/01 01:03:46;;;;;;;3.10;1.10;;;;;;;19.09;42.37;100217.97;5052266;28;20029;-58
2022/04/01 01:06:12;;;;;;;3.80;1.27;;;;;;;19.06;42.60;100214.75;5051281;28;20297;-58
2022/04/01 01:08:37;;;;;;;3.22;1.27;;;;;;;19.04;42.39;100220.19;5052410;28;20308;-58
2022/04/01 01:11:02;;;;;;;3.63;1.30;;;;;;;19.03;42.24;100224.63;5053708;28;20080;-58
2022/04/01 01:13:29;;;;;;;3.83;1.27;;;;;;;19.03;42.37;100211.44;5056100;28;20041;-57
2022/04/01 01:15:54;;;;;;;3.28;1.00;;;;;;;19.08;42.40;100216.28;5055858;28;20079;-58
2022/04/01 01:18:19;;;;;;;3.03;1.20;;;;;;;19.11;42.12;100216.00;5055193;28;20033;-58
2022/04/01 01:20:45;;;;;;;3.23;1.00;;;;;;;19.15;42.38;100219.16;5055624;28;20050;-57
2022/04/01 01:23:12;;;;;;;4.00;1.20;;;;;;;19.18;42.17;100214.44;5055527;28;20312;-57
2022/04/01 01:25:45;;;;;;;3.30;1.17;;;;;;;19.21;42.02;100215.94;5054901;28;20488;-58
2022/04/01 01:28:11;;;;;;;2.83;1.15;;;;;;;19.23;41.96;100218.44;5055209;28;20029;-57
2022/04/01 01:30:37;;;;;;;3.28;1.10;;;;;;;19.25;41.56;100217.31;5055458;28;20045;-58
2022/04/01 01:33:04;;;;;;;3.53;1.20;;;;;;;19.26;41.52;100218.97;5054632;28;20610;-57
2022/04/01 01:35:29;;;;;;;2.97;1.00;;;;;;;19.26;41.30;100218.97;5055757;28;20033;-57
2022/04/01 01:37:55;;;;;;;3.22;1.00;;;;;;;19.28;41.63;100216.19;5055361;28;20036;-57
2022/04/01 01:40:20;;;;;;;3.30;1.20;;;;;;;19.27;41.37;100215.34;5054733;28;20483;-58
2022/04/01 01:42:45;;;;;;;3.35;1.05;;;;;;;19.28;41.64;100221.47;5055507;28;20438;-57
2022/04/01 01:45:11;;;;;;;3.28;0.90;;;;;;;19.27;41.51;100215.34;5055040;28;20041;-58
2022/04/01 01:47:36;;;;;;;3.25;1.15;;;;;;;19.27;41.29;100219.81;5054576;28;20025;-58
2022/04/01 01:55:30;;;;;;;3.45;1.23;;;;;;;19.27;41.17;100227.75;5054655;28;20072;-57
2022/04/01 01:57:56;;;;;;;4.07;1.00;;;;;;;19.26;41.29;100223.44;5054740;28;20025;-58
2022/04/01 02:00:22;;;;;;;3.33;0.88;;;;;;;19.26;41.37;100226.88;5054523;28;20082;-57
2022/04/01 02:02:49;;;;;;;3.88;1.10;;;;;;;19.24;41.43;100236.78;5055245;28;20025;-57
2022/04/01 02:05:16;;;;;;;3.63;1.10;;;;;;;19.25;41.42;100243.75;5055135;28;20021;-57
2022/04/01 02:07:47;;;;;;;3.08;1.10;;;;;;;19.24;41.58;100247.34;5054326;28;20040;-61
2022/04/01 02:10:14;;;;;;;2.67;1.08;;;;;;;19.26;41.67;100244.56;5054466;28;20036;-58
2022/04/01 02:12:41;;;;;;;3.15;1.10;;;;;;;19.27;41.86;100233.03;5054991;28;20108;-56
2022/04/01 02:15:10;;;;;;;3.22;0.90;;;;;;;19.26;41.67;100245.38;5053769;28;20024;-58
2022/04/01 02:17:37;;;;;;;3.38;0.90;;;;;;;19.27;41.64;100233.84;5054636;28;20358;-56
2022/04/01 02:20:05;;;;;;;1.90;0.90;;;;;;;19.28;41.48;100248.72;5054086;28;20094;-58
2022/04/01 02:22:31;;;;;;;2.70;1.00;;;;;;;19.30;41.31;100251.22;5053947;28;20078;-57
2022/04/01 02:24:57;;;;;;;2.95;1.05;;;;;;;19.30;41.04;100253.88;5054394;28;20029;-57
2022/04/01 02:27:24;;;;;;;5.43;1.10;;;;;;;19.30;41.21;100256.50;5055168;28;20029;-57
2022/04/01 02:29:50;;;;;;;3.42;1.00;;;;;;;19.30;41.32;100259.97;5053792;28;20031;-58
2022/04/01 02:32:16;;;;;;;4.32;1.15;;;;;;;19.31;40.98;100266.09;5054699;28;20040;-58
2022/04/01 02:34:42;;;;;;;4.00;1.08;;;;;;;19.30;40.82;100259.97;5054848;28;20036;-59
2022/04/01 02:37:10;;;;;;;3.67;1.13;;;;;;;19.31;40.80;100266.09;5053339;28;20025;-57
2022/04/01 02:39:35;;;;;;;2.10;0.77;;;;;;;19.29;41.01;100268.06;5054291;28;20049;-58
2022/04/01 02:42:03;;;;;;;3.15;1.10;;;;;;;19.30;40.91;100275.81;5054137;28;20060;-57
2022/04/01 02:44:29;;;;;;;3.42;1.20;;;;;;;19.28;40.81;100272.50;5053429;28;20068;-57
2022/04/01 02:46:54;;;;;;;2.20;1.00;;;;;;;19.27;40.53;100273.47;5053999;28;20060;-57
2022/04/01 02:49:20;;;;;;;3.20;1.10;;;;;;;19.26;40.98;100278.91;5054333;28;20626;-57
2022/04/01 02:51:46;;;;;;;3.00;1.00;;;;;;;19.26;41.10;100285.00;5053242;28;20464;-58
2022/04/01 02:54:13;;;;;;;2.90;1.00;;;;;;;19.28;41.09;100284.88;5053719;28;20025;-57
2022/04/01 02:56:39;;;;;;;3.75;1.20;;;;;;;19.28;41.20;100284.88;5053165;28;20142;-57
2022/04/01 02:59:11;;;;;;;4.57;1.30;;;;;;;19.30;41.28;100290.84;5053758;28;20033;-57
2022/04/01 03:01:39;;;;;;;3.00;1.00;;;;;;;19.30;41.14;100296.97;5054102;28;20021;-57
2022/04/01 03:04:09;;;;;;;2.53;1.05;;;;;;;19.31;40.75;100292.50;5052860;28;20071;-57
2022/04/01 03:06:38;;;;;;;4.82;1.20;;;;;;;19.30;40.71;100294.31;5053779;28;20032;-57
2022/04/01 03:09:04;;;;;;;3.33;1.15;;;;;;;19.31;40.68;100296.00;5053387;28;20504;-57
2022/04/01 03:11:29;;;;;;;3.67;0.95;;;;;;;19.30;40.73;100291.69;5052801;28;20076;-57
2022/04/01 03:13:55;;;;;;;3.97;1.13;;;;;;;19.31;40.87;100303.94;5053432;28;20021;-57
2022/04/01 03:16:22;;;;;;;3.22;1.00;;;;;;;19.32;40.85;100296.81;5053746;28;20486;-57
2022/04/01 03:18:47;;;;;;;2.60;1.13;;;;;;;19.30;40.74;100299.59;5052974;28;20029;-57
2022/04/01 03:21:12;;;;;;;2.17;0.90;;;;;;;19.32;41.00;100313.50;5053172;28;20029;-57
2022/04/01 03:23:39;;;;;;;2.92;1.00;;;;;;;19.34;40.62;100308.91;5053689;28;20095;-58
2022/04/01 03:26:05;;;;;;;2.83;1.00;;;;;;;19.35;40.71;100307.91;5052350;28;20021;-57
2022/04/01 03:28:30;;;;;;;3.17;1.10;;;;;;;19.36;40.70;100320.16;5053505;28;20075;-58
2022/04/01 03:30:56;;;;;;;3.05;1.08;;;;;;;19.36;40.70;100311.41;5052915;28;20073;-57
2022/04/01 03:33:21;;;;;;;2.72;1.00;;;;;;;19.37;40.69;100324.44;5051827;28;20485;-57
2022/04/01 03:35:47;;;;;;;3.38;1.08;;;;;;;19.38;40.88;100330.59;5053211;28;20147;-57
2022/04/01 03:38:12;;;;;;;2.88;1.10;;;;;;;19.38;40.72;100322.66;5053215;28;20082;-57
2022/04/01 03:40:40;;;;;;;2.80;1.00;;;;;;;19.38;40.29;100330.59;5052688;28;20060;-57
2022/04/01 03:43:05;;;;;;;2.72;0.95;;;;;;;19.37;40.78;100331.56;5052973;28;20024;-57
2022/04/01 03:45:31;;;;;;;2.75;0.90;;;;;;;19.36;40.35;100329.91;5053184;28;20070;-57
2022/04/01 03:48:04;;;;;;;2.22;1.10;;;;;;;19.35;40.54;100322.94;5052118;28;20021;-57
2022/04/01 03:50:32;;;;;;;4.45;1.20;;;;;;;19.34;40.66;100329.19;5053089;28;20098;-57
2022/04/01 03:53:02;;;;;;;2.42;1.05;;;;;;;19.34;40.83;100327.41;5052136;28;20044;-57
2022/04/01 03:55:30;;;;;;;4.15;1.50;;;;;;;19.36;40.51;100329.91;5053102;28;20025;-57
2022/04/01 03:58:05;;;;;;;4.20;1.50;;;;;;;19.37;40.97;100334.19;5052685;28;20487;-57
2022/04/01 04:00:31;;;;;;;4.05;1.25;;;;;;;19.37;40.70;100342.13;5052094;28;20376;-57
2022/04/01 04:02:57;;;;;;;3.15;1.10;;;;;;;19.38;40.97;100344.63;5051163;28;20020;-57
2022/04/01 04:05:30;;;;;;;3.25;1.00;;;;;;;19.39;40.76;100346.31;5052984;28;20110;-58
2022/04/01 04:07:57;;;;;;;2.42;0.95;;;;;;;19.38;40.46;100357.84;5052029;28;20048;-57
2022/04/01 04:10:27;;;;;;;3.75;1.20;;;;;;;19.38;40.65;100360.47;5052698;28;20150;-58
2022/04/01 04:12:54;;;;;;;3.22;1.15;;;;;;;19.38;40.34;100372.88;5052444;28;20041;-58
2022/04/01 04:15:27;;;;;;;3.22;1.20;;;;;;;19.38;40.49;100367.59;5051810;28;20029;-57
2022/04/01 04:17:55;;;;;;;3.15;1.10;;;;;;;19.35;40.24;100368.69;5052529;28;20029;-57
2022/04/01 04:20:28;;;;;;;2.78;1.20;;;;;;;19.35;40.53;100371.34;5052826;28;20024;-57
2022/04/01 04:23:14;;;;;;;3.15;1.00;;;;;;;19.37;40.57;100376.47;5051495;28;20116;-57
2022/04/01 04:25:41;;;;;;;3.80;1.55;;;;;;;19.38;40.44;100378.16;5052614;28;20033;-58
2022/04/01 04:28:12;;;;;;;2.95;1.20;;;;;;;19.39;40.21;100383.28;5051591;28;20037;-57
2022/04/01 04:30:45;;;;;;;2.53;1.00;;;;;;;19.40;40.32;100384.94;5052903;28;20028;-57
2022/04/01 04:33:11;;;;;;;4.07;1.13;;;;;;;19.42;40.54;100389.25;5052753;28;20534;-57
2022/04/01 04:35:40;;;;;;;3.20;0.93;;;;;;;19.43;40.07;100390.94;5052484;28;20056;-58
2022/04/01 04:38:07;;;;;;;3.13;1.00;;;;;;;19.42;40.19;100392.72;5052796;28;20477;-57
2022/04/01 04:40:34;;;;;;;3.58;1.20;;;;;;;19.41;40.50;100404.28;5053168;28;20035;-57
2022/04/01 04:43:00;;;;;;;2.60;1.10;;;;;;;19.40;40.33;100405.25;5052995;28;20082;-57
2022/04/01 04:45:27;;;;;;;3.92;1.17;;;;;;;19.41;40.41;100412.22;5057002;28;20036;-57
2022/04/01 04:47:53;;;;;;;3.30;1.20;;;;;;;19.39;40.48;100419.44;5056147;28;20025;-58
2022/04/01 04:50:20;;;;;;;3.00;1.05;;;;;;;19.39;40.40;100419.44;5055711;28;20027;-58
2022/04/01 04:52:53;;;;;;;3.67;1.38;;;;;;;19.39;40.62;100420.28;5056233;28;20114;-58
2022/04/01 04:55:20;;;;;;;3.10;1.00;;;;;;;19.41;40.77;100436.00;5056538;28;20047;-58
2022/04/01 04:57:49;;;;;;;2.45;1.08;;;;;;;19.42;40.55;100432.38;5055731;28;20025;-58
2022/04/01 05:00:21;;;;;;;3.08;1.10;;;;;;;19.41;40.52;100441.28;5056235;28;20373;-58
2022/04/01 05:02:53;;;;;;;3.78;1.58;;;;;;;19.43;40.17;100451.72;5056294;28;20051;-58
2022/04/01 05:05:45;;;;;;;4.15;1.25;;;;;;;19.42;40.40;100450.84;5055499;28;20373;-58
2022/04/01 05:08:35;;;;;;;3.38;1.10;;;;;;;19.43;40.37;100452.53;5056009;28;20096;-57
2022/04/01 05:11:09;;;;;;;2.42;1.00;;;;;;;19.45;40.75;100449.75;5054957;28;20041;-57
2022/04/01 05:13:51;;;;;;;;;;;;;;;19.46;40.87;100462.00;5056549;28;20484;-57
2022/04/01 05:16:30;;;;;;;4.05;1.13;;;;;;;19.51;41.38;100472.97;5056056;28;19913;-57
2022/04/01 05:19:03;;;;;;;2.78;1.05;;;;;;;19.52;41.35;100470.19;5054676;28;20429;-58
2022/04/01 05:21:37;;;;;;;3.28;1.10;;;;;;;19.54;41.43;100473.50;5055706;28;20029;-57
2022/04/01 05:24:06;;;;;;;3.92;1.40;;;;;;;19.55;41.86;100477.84;5055190;28;20033;-57
2022/04/01 05:26:41;;;;;;;2.97;1.15;;;;;;;19.58;42.30;100476.69;5055359;28;20021;-57
2022/04/01 05:29:13;;;;;;;3.38;1.10;;;;;;;19.60;42.09;100471.25;5055545;28;20021;-57
2022/04/01 05:32:00;;;;;;;3.95;1.20;;;;;;;19.62;42.34;100485.19;5054889;28;20123;-57
2022/04/01 05:34:45;;;;;;;2.97;1.10;;;;;;;19.64;42.18;100483.22;5055526;28;20025;-57
2022/04/01 05:37:13;;;;;;;2.33;0.98;;;;;;;19.65;42.10;100490.19;5055103;28;20087;-57
2022/04/01 05:39:40;;;;;;;1.85;0.80;;;;;;;19.66;42.13;100492.69;5054864;28;20033;-57
2022/04/01 05:42:07;;;;;;;4.35;1.10;;;;;;;19.69;42.24;100494.22;5055110;28;20029;-58
2022/04/01 05:44:33;;;;;;;2.42;1.00;;;;;;;19.70;42.06;100509.09;5055345;28;20041;-57
2022/04/01 05:46:59;;;;;;;1.88;1.00;;;;;;;19.70;42.17;100515.22;5054207;28;20029;-57
2022/04/01 05:49:25;;;;;;;3.00;1.10;;;;;;;19.70;42.14;100511.75;5055206;28;20028;-56
2022/04/01 05:51:52;;;;;;;4.53;1.17;;;;;;;19.74;42.29;100515.75;5055013;28;20056;-57
2022/04/01 05:54:19;;;;;;;3.50;1.10;;;;;;;19.74;42.46;100521.03;5054568;28;20036;-57
2022/04/01 05:56:48;;;;;;;3.05;1.02;;;;;;;19.76;42.37;100532.34;5054495;28;20400;-57
2022/04/01 05:59:16;;;;;;;2.95;1.13;;;;;;;19.76;42.25;100527.06;5054950;28;20025;-57
2022/04/01 06:01:48;;;;;;;1.85;0.90;;;;;;;19.77;42.13;100534.00;5054924;28;20020;-57
2022/04/01 06:04:34;;;;;;;3.22;0.98;;;;;;;19.80;42.14;100539.00;5054727;28;20029;-57
2022/04/01 06:07:12;;;;;;;3.72;0.90;;;;;;;19.80;41.76;100546.94;5053924;28;20021;-58
2022/04/01 06:10:09;;;;;;;2.33;0.85;;;;;;;19.80;41.96;100546.94;5055017;28;20029;-57
2022/04/01 06:13:01;;;;;;;2.88;1.10;;;;;;;19.82;42.03;100567.97;5054916;28;20113;-57
2022/04/01 06:15:34;;;;;;;2.50;1.05;;;;;;;19.82;41.99;100563.53;5054427;28;20021;-57
2022/04/01 06:18:25;;;;;;;2.88;1.13;;;;;;;19.83;41.77;100561.69;5054516;28;20053;-57
2022/04/01 06:20:54;;;;;;;3.30;1.00;;;;;;;19.84;41.71;100577.44;5053773;28;20065;-58
2022/04/01 06:23:41;;;;;;;3.22;1.08;;;;;;;19.83;41.89;100570.47;5054479;28;20021;-57
2022/04/01 06:26:14;;;;;;;2.78;1.13;;;;;;;19.83;42.17;100574.94;5054215;28;20029;-57
2022/04/01 06:29:00;;;;;;;2.53;0.90;;;;;;;19.84;42.20;100585.38;5053690;28;20163;-57
2022/04/01 06:31:26;;;;;;;3.20;1.05;;;;;;;19.86;42.40;100582.56;5054481;28;20025;-57
2022/04/01 06:34:17;;;;;;;4.15;1.50;;;;;;;19.89;42.42;100593.69;5054238;28;20021;-59
2022/04/01 06:36:51;;;;;;;4.72;1.23;;;;;;;19.89;42.36;100598.16;5053808;28;20112;-57
2022/04/01 06:39:38;;;;;;;;;;;;;;;19.90;42.57;100600.66;5054890;28;20048;-59
2022/04/01 06:42:09;;;;;;;3.58;1.20;;;;;;;19.93;42.61;100605.66;5053487;28;20007;-57
2022/04/01 06:44:34;;;;;;;3.80;1.20;;;;;;;19.93;42.48;100613.59;5054107;28;20492;-58
2022/04/01 06:46:59;;;;;;;4.00;1.20;;;;;;;19.94;42.58;100620.53;5054109;28;20067;-58
2022/04/01 06:49:25;;;;;;;2.47;0.95;;;;;;;19.96;42.63;100624.88;5053504;28;20104;-58
2022/04/01 06:51:50;;;;;;;3.63;1.00;;;;;;;19.98;42.51;100639.63;5053880;28;20033;-58
2022/04/01 06:54:16;;;;;;;3.38;0.95;;;;;;;20.01;42.80;100630.56;5054022;28;20480;-58
2022/04/01 06:56:41;;;;;;;3.30;1.00;;;;;;;20.02;42.84;100641.00;5053151;28;20036;-58
2022/04/01 06:59:07;;;;;;;3.55;1.08;;;;;;;20.00;42.65;100629.72;5053667;28;20048;-58
2022/04/01 07:01:33;;;;;;;4.25;1.60;;;;;;;20.02;42.58;100637.53;5053937;28;20476;-60
2022/04/01 07:03:58;;;;;;;3.33;1.10;;;;;;;20.01;42.79;100642.00;5052825;28;20048;-57
2022/04/01 07:06:25;;;;;;;4.23;1.10;;;;;;;20.01;42.87;100643.78;5053962;28;20145;-59
2022/04/01 07:08:51;;;;;;;4.95;1.40;;;;;;;19.96;40.46;100646.84;5053666;28;20270;-56
2022/04/01 07:11:19;;;;;;;3.85;1.25;;;;;;;19.92;41.38;100648.94;5052876;28;20626;-52
2022/04/01 07:13:45;;;;;;;2.47;1.00;;;;;;;19.97;42.36;100655.63;5053767;28;20078;-55
2022/04/01 07:16:12;;;;;;;3.35;1.20;;;;;;;20.00;42.40;100648.25;5053055;28;20482;-56
2022/04/01 07:18:37;;;;;;;3.78;0.98;;;;;;;20.03;42.56;100655.09;5052975;28;20036;-56
2022/04/01 07:21:03;;;;;;;3.58;1.15;;;;;;;20.03;42.31;100655.91;5053246;28;20029;-56
2022/04/01 07:23:32;;;;;;;3.70;1.20;;;;;;;20.06;42.69;100657.41;5053411;28;20103;-55
2022/04/01 07:25:57;;;;;;;2.80;1.30;;;;;;;20.06;42.68;100663.56;5051936;28;20035;-53
2022/04/01 07:28:23;;;;;;;3.53;1.40;;;;;;;20.07;42.62;100664.38;5053132;28;20388;-56
2022/04/01 07:30:48;;;;;;;6.30;1.50;;;;;;;20.08;42.66;100677.47;5052600;28;20033;-54
2022/04/01 07:33:13;;;;;;;5.20;1.50;;;;;;;20.05;39.42;100680.41;5053190;28;20492;-57
2022/04/01 07:35:39;;;;;;;4.03;1.58;;;;;;;20.04;40.74;100678.72;5053343;28;20031;-55
2022/04/01 07:38:08;;;;;;;3.28;1.30;;;;;;;20.04;42.05;100683.19;5052129;28;20372;-55
2022/04/01 07:40:33;;;;;;;3.80;1.33;;;;;;;20.05;42.55;100684.88;5053505;28;20028;-56
2022/04/01 07:42:59;;;;;;;8.47;1.90;;;;;;;20.06;42.55;100690.00;5052818;28;20108;-56
2022/04/01 07:45:28;;;;;;;4.50;1.60;;;;;;;20.09;42.72;100697.66;5052397;28;20282;-56
2022/04/01 07:47:54;;;;;;;4.50;1.90;;;;;;;20.13;42.85;100697.38;5052681;28;20029;-56
2022/04/01 07:50:21;;;;;;;3.97;2.00;;;;;;;20.11;42.62;100701.00;5052913;28;20036;-57
2022/04/01 07:52:46;;;;;;;4.07;1.77;;;;;;;20.14;42.74;100701.69;5052405;28;20021;-57
2022/04/01 07:55:14;;;;;;;4.25;1.63;;;;;;;20.15;42.77;100704.19;5052833;28;20029;-54
2022/04/01 07:57:39;;;;;;;5.65;2.10;;;;;;;20.19;42.04;100712.69;5052949;28;20036;-57
2022/04/01 08:00:07;;;;;;;3.97;1.90;;;;;;;20.18;42.45;100717.13;5051637;28;20025;-57
2022/04/01 08:02:32;;;;;;;4.10;1.95;;;;;;;20.16;42.35;100713.81;5052847;28;20033;-57
2022/04/01 08:04:58;;;;;;;4.38;1.88;;;;;;;20.16;42.64;100712.97;5052685;28;20035;-57
2022/04/01 08:07:23;;;;;;;4.83;1.63;;;;;;;20.16;42.53;100729.69;5052118;28;20484;-57
2022/04/01 08:09:49;;;;;;;4.20;1.97;;;;;;;20.15;42.30;100724.53;5052610;28;20270;-57
2022/04/01 08:12:15;;;;;;;4.78;1.90;;;;;;;20.15;42.44;100730.66;5052399;28;20297;-57
2022/04/01 08:14:41;;;;;;;4.65;1.83;;;;;;;20.15;42.82;100730.66;5051941;28;20044;-56
2022/04/01 08:17:06;;;;;;;5.88;1.90;;;;;;;20.15;42.53;100741.22;5052324;28;20078;-57
2022/04/01 08:19:32;;;;;;;3.33;1.38;;;;;;;20.17;42.68;100739.31;5052303;28;20502;-56
2022/04/01 08:21:58;;;;;;;4.40;1.90;;;;;;;20.16;42.69;100740.25;5052046;28;20495;-60
2022/04/01 08:24:27;;;;;;;3.90;1.80;;;;;;;20.15;42.44;100740.41;5049860;28;20032;-57
2022/04/01 08:26:56;;;;;;;3.42;1.85;;;;;;;20.16;42.51;100750.03;5052005;28;20052;-58
2022/04/01 08:29:22;;;;;;;3.53;1.90;;;;;;;20.17;42.39;100756.97;5052231;28;20025;-57
2022/04/01 08:31:50;;;;;;;4.20;1.80;;;;;;;20.17;42.50;100754.31;5052492;28;20043;-56
2022/04/01 08:34:15;;;;;;;3.25;1.70;;;;;;;20.17;42.33;100759.63;5051995;28;20056;-56
2022/04/01 08:36:41;;;;;;;4.33;1.87;;;;;;;20.17;42.62;100764.91;5052920;28;20481;-57
2022/04/01 08:39:06;;;;;;;3.75;1.73;;;;;;;20.18;42.37;100777.16;5052236;28;20266;-56
2022/04/01 08:41:31;;;;;;;4.43;1.60;;;;;;;20.18;42.29;100772.69;5051848;28;20438;-56
2022/04/01 08:43:57;;;;;;;3.38;1.65;;;;;;;20.16;42.57;100779.13;5052229;28;20498;-58
2022/04/01 08:46:22;;;;;;;2.80;1.40;;;;;;;20.13;39.07;100788.16;5052462;28;20029;-58
2022/04/01 08:48:48;;;;;;;4.63;2.08;;;;;;;20.09;38.58;100787.63;5051684;28;20036;-58
2022/04/01 08:51:17;;;;;;;3.35;1.50;;;;;;;20.08;39.78;100800.97;5052389;28;20036;-56
2022/04/01 08:53:44;;;;;;;5.47;1.60;;;;;;;20.04;38.96;100791.63;5052469;28;20040;-54
2022/04/01 08:56:10;;;;;;;3.08;1.40;;;;;;;20.04;40.64;100802.22;5051108;28;20051;-54
2022/04/01 08:58:36;;;;;;;4.43;1.67;;;;;;;20.04;41.37;100810.97;5052129;28;20029;-56
2022/04/01 09:01:03;;;;;;;3.55;1.52;;;;;;;20.07;41.43;100810.72;5052072;28;20025;-57
2022/04/01 09:03:29;;;;;;;3.22;1.58;;;;;;;20.09;41.68;100805.28;5051330;28;20495;-58
2022/04/01 09:05:57;;;;;;;3.83;1.55;;;;;;;20.10;41.54;100807.78;5051849;28;20029;-56
2022/04/01 09:08:35;;;;;;;5.72;1.52;;;;;;;20.12;41.56;100812.94;5052306;28;20029;-57
2022/04/01 09:11:16;;;;;;;3.20;1.58;;;;;;;20.11;41.94;100822.69;5051019;28;20041;-57
2022/04/01 09:13:47;;;;;;;2.80;1.35;;;;;;;20.12;41.80;100823.53;5052502;28;20064;-57
2022/04/01 09:16:28;;;;;;;4.88;1.52;;;;;;;20.16;41.90;100832.88;5053470;28;20040;-58
2022/04/01 09:19:00;;;;;;;3.17;1.40;;;;;;;20.26;41.53;100835.53;5052854;28;20021;-58
2022/04/01 09:21:34;;;;;;;4.70;1.40;;;;;;;20.36;41.05;100832.88;5052530;28;20032;-58
2022/04/01 09:24:00;;;;;;;6.17;1.63;;;;;;;20.44;40.82;100833.84;5051697;28;20025;-57
2022/04/01 09:26:33;;;;;;;3.53;1.60;;;;;;;20.53;40.98;100832.16;5052695;28;20027;-57
2022/04/01 09:28:59;;;;;;;3.63;1.30;;;;;;;20.59;40.67;100836.06;5052123;28;20108;-57
2022/04/01 09:31:30;;;;;;;3.75;1.50;;;;;;;20.65;40.57;100839.03;5053621;28;20025;-58
2022/04/01 09:33:56;;;;;;;3.38;1.42;;;;;;;20.70;40.60;100841.25;5055895;28;20028;-58
2022/04/01 09:36:26;;;;;;;2.72;1.30;;;;;;;20.76;40.47;100842.47;5055502;28;20369;-55
2022/04/01 09:38:54;;;;;;;3.00;1.50;;;;;;;20.80;40.22;100850.00;5055223;28;20029;-57
2022/04/01 09:41:20;;;;;;;3.17;1.40;;;;;;;20.82;39.96;100845.41;5056121;28;20021;-57
2022/04/01 09:43:46;;;;;;;3.90;1.60;;;;;;;20.82;40.13;100848.06;5056179;28;20049;-57
2022/04/01 09:46:26;;;;;;;2.97;1.45;;;;;;;20.84;40.09;100850.56;5054625;28;20465;-56
2022/04/01 09:48:56;;;;;;;3.67;1.40;;;;;;;20.86;40.02;100847.78;5055572;28;20127;-57
2022/04/01 09:51:22;;;;;;;4.18;1.30;;;;;;;20.86;39.96;100845.13;5055266;28;20376;-58
2022/04/01 09:53:52;;;;;;;3.72;1.48;;;;;;;20.88;40.05;100849.28;5055446;28;20029;-58
2022/04/01 09:56:18;;;;;;;2.85;1.33;;;;;;;20.91;40.08;100848.19;5055775;28;20021;-58
2022/04/01 09:58:44;;;;;;;3.47;1.67;;;;;;;20.91;39.96;100849.00;5055064;28;20021;-58
2022/04/01 10:01:09;;;;;;;3.80;1.15;;;;;;;20.94;39.77;100855.84;5055009;28;20028;-59
2022/04/01 10:03:35;;;;;;;4.07;1.30;;;;;;;20.95;39.63;100853.06;5055417;28;20025;-59
2022/04/01 10:06:01;;;;;;;2.85;1.30;;;;;;;20.95;39.33;100854.84;5054501;28;20473;-58
2022/04/01 10:08:28;;;;;;;2.45;1.13;;;;;;;20.93;39.58;100852.34;5055204;28;20033;-59
2022/04/01 10:10:54;;;;;;;2.97;1.23;;;;;;;20.93;39.49;100859.47;5054495;28;20044;-58
2022/04/01 10:13:21;;;;;;;3.50;1.10;;;;;;;20.90;39.32;100857.09;5054136;28;20021;-58
2022/04/01 10:15:47;;;;;;;3.42;1.13;;;;;;;20.88;39.56;100851.94;5055356;28;20074;-58
2022/04/01 10:18:14;;;;;;;3.55;1.33;;;;;;;20.86;39.50;100856.56;5054848;28;20065;-57
2022/04/01 10:20:42;;;;;;;2.35;1.20;;;;;;;20.83;39.67;100862.94;5054114;28;20699;-57
2022/04/01 10:23:11;;;;;;;3.80;1.35;;;;;;;20.82;39.62;100868.41;5054775;28;20068;-55
2022/04/01 10:25:47;;;;;;;2.75;1.20;;;;;;;20.77;39.43;100863.53;5054732;28;20491;-57
2022/04/01 10:28:14;;;;;;;4.43;1.30;;;;;;;20.72;39.60;100864.94;5055213;28;20062;-56
2022/04/01 10:30:40;;;;;;;3.95;1.70;;;;;;;20.66;39.58;100863.69;5054771;28;20025;-54
2022/04/01 10:33:07;;;;;;;2.38;1.08;;;;;;;20.66;39.65;100871.63;5053976;28;20115;-54
2022/04/01 10:35:35;;;;;;;4.32;1.15;;;;;;;20.68;39.64;100869.69;5053905;28;20063;-56
2022/04/01 10:38:07;;;;;;;2.45;1.05;;;;;;;20.69;39.43;100873.16;5054042;28;20025;-54
2022/04/01 10:40:36;;;;;;;3.15;1.20;;;;;;;20.70;39.33;100866.91;5054083;28;20071;-56
2022/04/01 10:43:15;;;;;;;2.10;1.15;;;;;;;20.67;39.59;100872.47;5053051;28;20021;-55
2022/04/01 10:45:55;;;;;;;2.50;1.20;;;;;;;20.63;39.25;100874.50;5054372;28;20036;-56
2022/04/01 10:51:38;;;;;;;2.83;1.88;;;;;;;20.27;38.47;100876.91;5054031;28;20106;-58
2022/04/01 10:54:12;;;;;;;4.60;1.35;;;;;;;20.22;39.66;100872.00;5053665;28;20031;-54
2022/04/01 10:57:07;;;;;;;4.00;1.40;;;;;;;20.21;39.93;100885.38;5053522;28;20098;-56
2022/04/01 10:59:45;;;;;;;4.15;1.25;;;;;;;20.23;40.42;100883.44;5053216;28;20080;-55
2022/04/01 11:02:15;;;;;;;3.08;1.25;;;;;;;20.27;40.45;100884.84;5053602;28;20031;-58
2022/04/01 11:04:43;;;;;;;5.38;1.30;;;;;;;20.29;40.14;100890.81;5054968;28;20052;-59
2022/04/01 11:07:29;;;;;;;2.55;1.20;;;;;;;20.37;40.10;100887.47;5055109;28;20925;-59
2022/04/01 11:10:07;;;;;;;3.42;1.50;;;;;;;20.45;39.91;100891.09;5052421;28;20099;-57
2022/04/01 11:12:41;;;;;;;3.58;1.27;;;;;;;20.47;39.83;100899.75;5053610;28;20214;-58
2022/04/01 11:15:09;;;;;;;2.85;1.25;;;;;;;20.50;40.30;100898.63;5053607;28;20025;-57
2022/04/01 11:17:34;;;;;;;3.05;1.10;;;;;;;20.51;40.24;100899.47;5053308;28;20033;-58
2022/04/01 11:20:18;;;;;;;4.10;1.50;;;;;;;20.53;40.17;100902.81;5053717;28;20036;-59
2022/04/01 11:22:52;;;;;;;3.63;1.27;;;;;;;20.55;39.76;100899.03;5054168;28;20036;-57
2022/04/01 11:25:32;;;;;;;3.53;1.30;;;;;;;20.56;40.23;100903.38;5053238;28;20071;-57
2022/04/01 11:27:57;;;;;;;3.58;1.27;;;;;;;20.57;40.26;100912.13;5053185;28;20061;-56
2022/04/01 11:30:25;;;;;;;4.88;1.55;;;;;;;20.35;35.41;100907.97;5052553;28;20056;-56
2022/04/01 11:32:56;;;;;;;3.15;1.38;;;;;;;20.25;38.77;100910.56;5053229;28;20075;-57
2022/04/01 11:35:23;;;;;;;4.90;1.48;;;;;;;20.27;39.64;100912.13;5053434;28;20112;-58
2022/04/01 11:37:51;;;;;;;3.17;1.23;;;;;;;20.28;39.97;100913.81;5052311;28;20423;-58
2022/04/01 11:40:23;;;;;;;3.33;1.30;;;;;;;20.29;40.01;100918.09;5053379;28;20013;-58
2022/04/01 11:43:03;;;;;;;4.25;1.52;;;;;;;20.32;40.26;100913.53;5052873;28;20027;-58
2022/04/01 11:45:36;;;;;;;3.90;1.33;;;;;;;20.35;40.42;100921.19;5052504;28;20025;-58